Overview Statistics Trail Chart Weather Telemetry Raw packets
 

This is the latest recevied weather packets stored in our database for station/object WC4PEM-4. If no packets are shown the sender has not sent any weather packets the latest 10 day(s).

<< 150 151 152 153 154 155 156 >>
Time Temp. Humidity Pressure Rain* Wind** Luminosity Snow
1787783193 25° C 87% 1016.2 hPa 2.29 mm - - -
1787782893 25° C 88% 1015.8 hPa 2.79 mm - - -
1787782593 25° C 88% 1014.9 hPa 3.05 mm - - -
1787782297 25° C 88% 1014.7 hPa 3.05 mm - - -
1787781993 25° C 89% 1014.5 hPa 3.05 mm - - -
1787781693 25° C 86% 1014.3 hPa 3.05 mm - - -
1787781393 25° C 86% 1014.2 hPa 3.05 mm - - -
1787781093 25° C 86% 1014.2 hPa 3.05 mm - - -
1787780793 25° C 85% 1013.9 hPa 2.79 mm - - -
1787780493 25.56° C 84% 1013.9 hPa 2.79 mm - - -
1787780442 26.11° C 81% 1013.7 hPa 2.29 mm - - -
1787780196 26.67° C 75% 1013.6 hPa 0.76 mm - - -
1787780193 26.11° C 81% 1013.7 hPa 2.29 mm - - -
1787779893 26.67° C 75% 1013.6 hPa 0.76 mm - - -
1787779593 27.78° C 67% 1013.7 hPa 0.76 mm - - -
1787779293 30.56° C 68% 1013.9 hPa 0 mm - - -
1787778993 31.67° C 60% 1013.8 hPa 0 mm - - -
1787778693 32.22° C 60% 1013.9 hPa 0 mm - - -
1787778516 32.22° C 59% 1013.8 hPa 0 mm - - -
1787778393 32.22° C 59% 1013.8 hPa 0 mm - - -
1787778093 32.22° C 59% 1013.7 hPa 0 mm - - -
1787777793 32.22° C 58% 1014 hPa 0 mm - - -
1787777615 32.78° C 57% 1014.1 hPa 0 mm - - -
1787777493 32.78° C 57% 1014.1 hPa 0 mm - - -
1787777193 32.78° C 58% 1013.9 hPa 0 mm - - -

* Rain latest hour (hover to see other rain measurements)
** Current wind speed in m/s (hover to see current wind gust speed)